Página principal
METAR-TAF:

METAR-TAF

Aeroportos :

Aeroporto Internacional de Wattay

Vientiane, Laos

latitude: 17-57N, longitude: 102-34E, altura: 171 m

Observação actual do tempo

O boletim foi feito há 25 minutos, às 04:30 UTC
Vento 2 kt de su-sudeste
Temperatura 30°C
Humidade 75%
Pressão 1011 hPa
Visibilidade: 8000 m
Nuvens dispersasa uma altura de 1600 ft
Nuvens fragmentadasa uma altura de 4000 ft

METAR: VLVT 230430Z 16002KT 8000 SCT016 BKN040 30/25 Q1011 NOSIG

Hora: 11:55 (04:55 UTC)

Previsão

O boletim foi feito há 5 horas e 55 minutos, às 23:00 UTC
Previsão válida de 23 às 00 UTC a 23 às 24 UTC
Vento 4 kt de es-nordeste
Visibilidade: 8000 m
Nuvens dispersasa uma altura de 2000 ft
Nuvens dispersasa uma altura de 20000 ft
Temporariamente
de 23 às 14 UTC a 23 às 20 UTC
Visibilidade: 4000 m
Nuvens dispersasa uma altura de 4000 ft
Poucas nuvensa uma altura de 20000 ft
neblina

TAF: VLVT 222300Z 2300/2324 06004KT 8000 SCT020 SCT200 TEMPO 2314/2320 4000 BR SCT040 FEW200

Observações e previsões do tempo de mais de 4000 aeroportos (mensagens METAR e TAF).

As estações disponíveis são os pontos amarelos e vermelhos sobre o mapa.

Mova o rato sobre o mapa para ver o nome da estação.

Depois clique no ponto para visualizar as observações e previsões meteorológicas.

Para alterar o mapa : clique nos botões verdes com uma cruz preta para aumentar o zoom; no botão verde com uma pitada de zoom; ou nas setas verdes para mapas adjacentes.


METAR-TAF: